Time;durP1;ratioP1;P1;durP2;ratioP2;P2;SDS_P1;SDS_P2;PMS_P1;PMS_P2;Temp;Humidity;BMP_temperature;BMP_pressure;BME280_temperature;BME280_humidity;BME280_pressure;Samples;Min_cycle;Max_cycle;Signal;HPM_P1;HPM_P2
2023/10/23 00:00:03;;;;;;;1.20;1.10;;;12.20;99.90;;;;;;5060585;28;20265;-68
2023/10/23 00:02:38;;;;;;;1.77;1.57;;;12.20;99.90;;;;;;5060005;28;20191;-68
2023/10/23 00:05:05;;;;;;;1.67;1.20;;;12.20;99.90;;;;;;5060353;28;20467;-68
2023/10/23 00:07:31;;;;;;;1.70;1.07;;;12.20;99.90;;;;;;5060439;28;20411;-69
2023/10/23 00:09:56;;;;;;;1.30;1.07;;;12.10;99.90;;;;;;5023417;28;20428;-68
2023/10/23 00:12:22;;;;;;;1.67;1.07;;;12.10;99.90;;;;;;5048564;28;20284;-68
2023/10/23 00:14:48;;;;;;;1.53;1.43;;;12.10;99.90;;;;;;5059112;28;20276;-68
2023/10/23 00:17:13;;;;;;;1.30;1.10;;;12.10;99.90;;;;;;5061076;28;20778;-70
2023/10/23 00:19:39;;;;;;;1.50;1.20;;;12.10;99.90;;;;;;5059742;28;20500;-69
2023/10/23 00:22:05;;;;;;;1.17;1.07;;;12.10;99.90;;;;;;5060107;28;20192;-68
2023/10/23 00:24:30;;;;;;;1.57;1.10;;;12.00;99.90;;;;;;5059059;28;20221;-68
2023/10/23 00:26:56;;;;;;;1.63;1.17;;;12.00;99.90;;;;;;5047172;28;20488;-67
2023/10/23 00:29:21;;;;;;;1.97;1.50;;;12.00;99.90;;;;;;5059694;28;20213;-67
2023/10/23 00:31:47;;;;;;;1.60;1.30;;;12.00;99.90;;;;;;5041934;28;20190;-68
2023/10/23 00:34:13;;;;;;;2.03;1.70;;;11.90;99.90;;;;;;5041839;28;20506;-67
2023/10/23 00:36:38;;;;;;;1.90;1.37;;;11.90;99.90;;;;;;5059258;28;20230;-68
2023/10/23 00:39:04;;;;;;;1.70;1.60;;;11.90;99.90;;;;;;5059177;28;20181;-69
2023/10/23 00:41:30;;;;;;;1.80;1.50;;;11.90;99.90;;;;;;5060058;28;20187;-68
2023/10/23 00:43:55;;;;;;;1.53;1.43;;;11.80;99.90;;;;;;5059718;28;20212;-67
2023/10/23 00:46:23;;;;;;;2.83;2.17;;;11.80;99.90;;;;;;5058472;28;20180;-69
2023/10/23 00:48:50;;;;;;;2.07;1.50;;;11.80;99.90;;;;;;5041103;28;20281;-69
2023/10/23 00:51:17;;;;;;;1.53;1.40;;;11.80;99.90;;;;;;5041214;28;20485;-68
2023/10/23 00:53:44;;;;;;;1.60;1.43;;;11.80;99.90;;;;;;5058617;28;20470;-67
2023/10/23 00:56:10;;;;;;;2.03;1.63;;;11.80;99.90;;;;;;5058070;28;20550;-69
2023/10/23 00:58:40;;;;;;;2.00;1.80;;;11.80;99.90;;;;;;5059408;28;20691;-68
2023/10/23 01:01:11;;;;;;;1.70;1.23;;;11.70;99.90;;;;;;5057489;28;20589;-68
2023/10/23 01:03:41;;;;;;;1.40;1.30;;;11.70;99.90;;;;;;5058213;28;20439;-68
2023/10/23 01:06:07;;;;;;;1.70;1.40;;;11.70;99.90;;;;;;5058324;28;20424;-68
2023/10/23 01:08:33;;;;;;;1.40;1.20;;;11.60;99.90;;;;;;5057739;28;20427;-67
2023/10/23 01:10:59;;;;;;;2.23;1.33;;;11.50;99.90;;;;;;5058513;28;20413;-68
2023/10/23 01:13:26;;;;;;;1.80;1.50;;;11.40;99.90;;;;;;5057417;28;20898;-68
2023/10/23 01:15:52;;;;;;;1.40;1.07;;;11.20;99.90;;;;;;5057542;28;20467;-68
2023/10/23 01:18:18;;;;;;;1.60;1.27;;;11.10;99.90;;;;;;5058724;28;20700;-67
2023/10/23 01:20:44;;;;;;;1.50;1.00;;;10.90;99.90;;;;;;5058753;28;20652;-67
2023/10/23 01:23:11;;;;;;;1.10;0.83;;;10.80;99.90;;;;;;5057453;28;20770;-67
2023/10/23 01:25:38;;;;;;;1.57;1.00;;;10.70;99.90;;;;;;5020416;28;20464;-68
2023/10/23 01:28:04;;;;;;;1.80;1.20;;;10.60;99.90;;;;;;5037542;28;20428;-69
2023/10/23 01:30:30;;;;;;;1.50;1.27;;;10.50;99.90;;;;;;5057289;28;20475;-69
2023/10/23 01:32:56;;;;;;;2.77;1.37;;;10.40;99.90;;;;;;5039591;28;20424;-68
2023/10/23 01:35:21;;;;;;;1.80;1.33;;;10.40;99.90;;;;;;5056809;28;20945;-68
2023/10/23 01:37:51;;;;;;;1.40;1.03;;;10.30;99.90;;;;;;5040064;28;20220;-68
2023/10/23 01:40:17;;;;;;;1.50;1.20;;;10.30;99.90;;;;;;5039993;28;20516;-67
2023/10/23 01:42:43;;;;;;;2.03;1.43;;;10.20;99.90;;;;;;5055819;28;20443;-69
2023/10/23 01:45:10;;;;;;;3.30;1.77;;;10.20;99.90;;;;;;5033640;28;20428;-68
2023/10/23 01:47:35;;;;;;;2.57;2.13;;;10.10;99.90;;;;;;5040679;28;20409;-67
2023/10/23 01:50:01;;;;;;;3.17;2.00;;;10.10;99.90;;;;;;5057009;28;20791;-69
2023/10/23 01:52:26;;;;;;;4.00;2.90;;;10.10;99.90;;;;;;5057140;28;20477;-68
2023/10/23 01:54:52;;;;;;;3.20;2.20;;;10.00;99.90;;;;;;5039571;28;20507;-68
2023/10/23 01:57:18;;;;;;;2.53;2.00;;;10.00;99.90;;;;;;5057279;28;20523;-68
2023/10/23 01:59:44;;;;;;;2.80;2.20;;;9.90;99.90;;;;;;5039370;28;20655;-68
2023/10/23 02:02:10;;;;;;;3.00;2.00;;;9.90;99.90;;;;;;5039569;28;20839;-67
2023/10/23 02:04:38;;;;;;;3.40;2.20;;;9.80;99.90;;;;;;5039521;28;20435;-68
2023/10/23 02:07:04;;;;;;;2.30;2.07;;;9.80;99.90;;;;;;5057756;28;20243;-68
2023/10/23 02:09:30;;;;;;;3.70;2.40;;;9.80;99.90;;;;;;5056990;28;20691;-68
2023/10/23 02:11:55;;;;;;;3.00;1.73;;;9.80;99.90;;;;;;5039897;28;20190;-70
2023/10/23 02:14:21;;;;;;;3.43;1.97;;;9.70;99.90;;;;;;5060716;28;20201;-68
2023/10/23 02:16:47;;;;;;;2.80;2.03;;;9.70;99.90;;;;;;5061677;28;20459;-67
2023/10/23 02:19:13;;;;;;;2.10;1.87;;;9.60;99.90;;;;;;5043583;28;20496;-68
2023/10/23 02:21:38;;;;;;;2.13;1.60;;;9.60;99.90;;;;;;5043556;28;20193;-67
2023/10/23 02:24:04;;;;;;;2.23;2.03;;;9.60;99.90;;;;;;5060882;28;20658;-68
2023/10/23 02:26:30;;;;;;;5.07;2.37;;;9.50;99.90;;;;;;5043481;28;20202;-67
2023/10/23 02:28:57;;;;;;;4.07;2.37;;;9.50;99.90;;;;;;5042931;28;20462;-68
2023/10/23 02:31:22;;;;;;;2.80;2.10;;;9.50;99.90;;;;;;5060535;28;20432;-68
2023/10/23 02:33:49;;;;;;;5.20;2.60;;;9.50;99.90;;;;;;5060716;28;20444;-68
2023/10/23 02:36:15;;;;;;;2.63;2.10;;;9.40;99.90;;;;;;5060837;28;20233;-68
2023/10/23 02:38:41;;;;;;;2.40;2.20;;;9.40;99.90;;;;;;5060725;28;20412;-68
2023/10/23 02:41:07;;;;;;;3.37;1.93;;;9.40;99.90;;;;;;5043730;28;20421;-67
2023/10/23 02:43:33;;;;;;;3.33;2.07;;;9.40;99.90;;;;;;5065783;28;20440;-68
2023/10/23 02:46:02;;;;;;;2.47;2.27;;;9.40;99.90;;;;;;5043223;28;20209;-67
2023/10/23 02:48:28;;;;;;;3.73;2.30;;;9.30;99.90;;;;;;5060658;28;20200;-66
2023/10/23 02:50:57;;;;;;;4.77;2.40;;;9.30;99.90;;;;;;5060679;28;20676;-68
2023/10/23 02:53:23;;;;;;;3.90;2.30;;;9.30;99.90;;;;;;5060198;28;20519;-68
2023/10/23 02:55:49;;;;;;;3.90;2.97;;;9.20;99.90;;;;;;5061228;28;20483;-69
2023/10/23 02:58:18;;;;;;;4.50;2.47;;;9.20;99.90;;;;;;5065617;28;20424;-67
2023/10/23 03:00:44;;;;;;;2.50;2.30;;;9.20;99.90;;;;;;5059801;28;20523;-67
2023/10/23 03:03:10;;;;;;;2.97;2.30;;;9.20;99.90;;;;;;5042017;28;20458;-67
2023/10/23 03:05:36;;;;;;;2.87;2.57;;;9.20;99.90;;;;;;5060111;28;20436;-68
2023/10/23 03:08:02;;;;;;;4.30;2.90;;;9.20;99.90;;;;;;5060199;28;20505;-68
2023/10/23 03:10:29;;;;;;;2.97;2.30;;;9.10;99.90;;;;;;5060176;28;20668;-68
2023/10/23 03:12:55;;;;;;;3.30;2.70;;;9.10;99.90;;;;;;5042893;28;20908;-68
2023/10/23 03:15:20;;;;;;;3.17;2.60;;;9.10;99.90;;;;;;5060023;28;20460;-68
2023/10/23 03:17:47;;;;;;;2.70;2.30;;;9.10;99.90;;;;;;5059450;28;20178;-68
2023/10/23 03:20:14;;;;;;;3.00;2.17;;;9.00;99.90;;;;;;5042357;28;20424;-68
2023/10/23 03:22:40;;;;;;;3.93;2.17;;;9.00;99.90;;;;;;5032992;28;20314;-69
2023/10/23 03:25:07;;;;;;;2.23;1.87;;;8.90;99.90;;;;;;5059574;28;20495;-70
2023/10/23 03:27:33;;;;;;;2.30;2.07;;;8.90;99.90;;;;;;5045035;28;20276;-68
2023/10/23 03:29:59;;;;;;;2.97;2.23;;;8.90;99.90;;;;;;5041987;28;20519;-71
2023/10/23 03:32:26;;;;;;;3.00;2.13;;;8.90;99.90;;;;;;5060273;28;20190;-68
2023/10/23 03:34:51;;;;;;;2.80;2.33;;;8.90;99.90;;;;;;5041278;28;20574;-70
2023/10/23 03:37:17;;;;;;;3.67;2.47;;;8.90;99.90;;;;;;5059817;28;20228;-67
2023/10/23 03:39:43;;;;;;;2.83;2.20;;;8.80;99.90;;;;;;5060841;28;20178;-68
2023/10/23 03:42:08;;;;;;;3.47;2.47;;;8.80;99.90;;;;;;5060381;28;20450;-68
2023/10/23 03:44:35;;;;;;;3.83;2.70;;;8.80;99.90;;;;;;5068593;28;20488;-68
2023/10/23 03:47:01;;;;;;;4.60;2.60;;;8.80;99.90;;;;;;5060897;28;20210;-70
2023/10/23 03:49:28;;;;;;;4.87;2.97;;;8.90;99.90;;;;;;5061734;28;20425;-68
2023/10/23 03:51:53;;;;;;;3.07;2.73;;;8.90;99.90;;;;;;5061069;28;20461;-69
2023/10/23 03:54:19;;;;;;;3.53;2.97;;;8.90;99.90;;;;;;5060282;28;20757;-68
2023/10/23 03:56:45;;;;;;;5.00;3.20;;;8.90;99.90;;;;;;5059932;28;20263;-69
2023/10/23 03:59:10;;;;;;;3.97;2.63;;;8.90;99.90;;;;;;5060067;28;20181;-69
2023/10/23 04:01:36;;;;;;;3.00;2.53;;;8.90;99.90;;;;;;5060515;28;20197;-68
2023/10/23 04:04:01;;;;;;;3.00;2.57;;;8.90;99.90;;;;;;5059896;28;20220;-68
2023/10/23 04:06:27;;;;;;;3.20;2.87;;;8.90;99.90;;;;;;5042562;28;20205;-69
2023/10/23 04:08:53;;;;;;;4.23;2.67;;;8.90;99.90;;;;;;5025228;28;20248;-68
2023/10/23 04:11:18;;;;;;;3.13;2.70;;;8.90;99.90;;;;;;5060774;28;20177;-67
2023/10/23 04:13:44;;;;;;;3.20;2.63;;;8.90;99.90;;;;;;5066906;28;20217;-66
2023/10/23 04:16:09;;;;;;;3.40;2.90;;;8.90;99.90;;;;;;5060186;28;20462;-69
2023/10/23 04:18:35;;;;;;;3.10;2.67;;;8.90;99.90;;;;;;5059312;28;20193;-71
2023/10/23 04:21:10;;;;;;;5.47;4.03;;;8.90;99.90;;;;;;5060022;28;20221;-68
2023/10/23 04:23:39;;;;;;;4.60;3.27;;;8.90;99.90;;;;;;5041741;28;20216;-66
2023/10/23 04:26:08;;;;;;;8.00;4.70;;;8.90;99.90;;;;;;5060685;28;20495;-68
2023/10/23 04:28:35;;;;;;;4.80;3.00;;;9.00;99.90;;;;;;5059777;28;20416;-68
2023/10/23 04:31:00;;;;;;;4.23;3.10;;;9.00;99.90;;;;;;5060330;28;20412;-68
2023/10/23 04:33:27;;;;;;;6.87;3.43;;;9.00;99.90;;;;;;5060564;28;20461;-68
2023/10/23 04:35:57;;;;;;;5.67;3.70;;;9.00;99.90;;;;;;5060358;28;20468;-69
2023/10/23 04:38:26;;;;;;;5.70;3.23;;;8.90;99.90;;;;;;5061928;28;20420;-69
2023/10/23 04:40:53;;;;;;;7.43;2.43;;;8.90;99.90;;;;;;5062005;28;20404;-69
2023/10/23 04:43:19;;;;;;;4.20;2.50;;;8.90;99.90;;;;;;5060820;28;20453;-67
2023/10/23 04:45:45;;;;;;;2.93;2.50;;;8.90;99.90;;;;;;5062160;28;20409;-70
2023/10/23 04:48:11;;;;;;;3.83;2.90;;;8.90;99.90;;;;;;5054276;28;20419;-68
2023/10/23 04:50:38;;;;;;;4.70;2.93;;;8.90;99.90;;;;;;5026712;28;20417;-68
2023/10/23 04:53:05;;;;;;;4.80;2.80;;;8.80;99.90;;;;;;5045948;28;20202;-69
2023/10/23 04:55:34;;;;;;;3.53;2.30;;;8.80;99.90;;;;;;5064358;28;20751;-67
2023/10/23 04:58:01;;;;;;;4.90;2.87;;;8.80;99.90;;;;;;5062673;28;20428;-68
2023/10/23 05:00:27;;;;;;;4.00;2.40;;;8.70;99.90;;;;;;5045316;28;20916;-68
2023/10/23 05:02:53;;;;;;;4.20;2.50;;;8.70;99.90;;;;;;5062332;28;20471;-68
2023/10/23 05:05:19;;;;;;;5.60;2.70;;;8.70;99.90;;;;;;5044616;28;20456;-69
2023/10/23 05:07:45;;;;;;;5.97;2.30;;;8.60;99.90;;;;;;5064320;28;20181;-72
2023/10/23 05:10:11;;;;;;;2.40;1.77;;;8.70;99.90;;;;;;5047085;28;20190;-68
2023/10/23 05:12:37;;;;;;;3.40;1.90;;;8.70;99.90;;;;;;5069547;28;20431;-69
2023/10/23 05:15:04;;;;;;;3.30;2.23;;;8.60;99.90;;;;;;5031695;28;20231;-68
2023/10/23 05:17:30;;;;;;;5.10;2.40;;;8.60;99.90;;;;;;5063721;28;20430;-69
2023/10/23 05:19:55;;;;;;;5.77;2.90;;;8.60;99.90;;;;;;5009837;28;20453;-68
2023/10/23 05:22:21;;;;;;;4.93;2.57;;;8.60;99.90;;;;;;5059176;28;20165;-68
2023/10/23 05:24:47;;;;;;;3.50;2.10;;;8.60;99.90;;;;;;5064694;28;20221;-70
2023/10/23 05:27:14;;;;;;;3.57;2.40;;;8.60;99.90;;;;;;5025257;28;20186;-68
2023/10/23 05:29:40;;;;;;;5.13;2.43;;;8.60;99.90;;;;;;5059277;28;20416;-69
2023/10/23 05:32:06;;;;;;;2.60;2.40;;;8.60;99.90;;;;;;5062837;28;20888;-71
2023/10/23 05:34:35;;;;;;;3.03;2.30;;;8.60;99.90;;;;;;5045654;28;20201;-69
2023/10/23 05:37:01;;;;;;;4.40;3.00;;;8.60;99.90;;;;;;5062608;28;20444;-70
2023/10/23 05:39:27;;;;;;;5.30;2.70;;;8.60;99.90;;;;;;5044888;28;20435;-69
2023/10/23 05:41:52;;;;;;;3.17;2.73;;;8.60;99.90;;;;;;5044241;28;20202;-70
2023/10/23 05:44:18;;;;;;;3.93;3.00;;;8.60;99.90;;;;;;5063687;28;20475;-69
2023/10/23 05:46:44;;;;;;;3.63;3.33;;;8.60;99.90;;;;;;5064600;28;20644;-70
2023/10/23 05:49:09;;;;;;;3.33;2.77;;;8.60;99.90;;;;;;5064507;28;20212;-70
2023/10/23 05:51:35;;;;;;;4.37;3.97;;;8.60;99.90;;;;;;5064134;28;20166;-70
2023/10/23 05:54:02;;;;;;;3.63;2.80;;;8.60;99.90;;;;;;5026050;28;20221;-72
2023/10/23 05:56:28;;;;;;;4.00;3.10;;;8.60;99.90;;;;;;5044473;28;20244;-70
2023/10/23 05:58:54;;;;;;;7.63;3.50;;;8.60;99.90;;;;;;5063226;28;20436;-69
2023/10/23 06:01:19;;;;;;;3.90;3.50;;;8.60;99.90;;;;;;5064844;28;20215;-69
2023/10/23 06:03:45;;;;;;;6.33;3.77;;;8.60;99.90;;;;;;5049032;28;20209;-71
2023/10/23 06:06:12;;;;;;;5.50;3.67;;;8.60;99.90;;;;;;5063593;28;20188;-69
2023/10/23 06:08:38;;;;;;;6.43;4.50;;;8.60;99.90;;;;;;5064167;28;20184;-71
2023/10/23 06:11:10;;;;;;;11.00;4.57;;;8.70;99.90;;;;;;5064631;28;20688;-71
2023/10/23 06:13:36;;;;;;;5.40;3.90;;;8.70;99.90;;;;;;5029815;28;20453;-72
2023/10/23 06:16:04;;;;;;;10.00;4.53;;;8.70;99.90;;;;;;5047458;28;20460;-70
2023/10/23 06:18:34;;;;;;;9.37;4.20;;;8.80;99.90;;;;;;5064208;28;20626;-70
2023/10/23 06:21:04;;;;;;;8.33;4.60;;;8.80;99.90;;;;;;5047168;28;20431;-72
2023/10/23 06:23:37;;;;;;;8.10;4.83;;;8.80;99.90;;;;;;5065458;28;20444;-69
2023/10/23 06:26:03;;;;;;;10.60;5.20;;;8.90;99.90;;;;;;5062874;28;20716;-73
2023/10/23 06:28:29;;;;;;;8.60;5.37;;;8.90;99.90;;;;;;5045298;28;20412;-71
2023/10/23 06:30:55;;;;;;;4.83;3.77;;;8.90;99.90;;;;;;5063696;28;20496;-69
2023/10/23 06:33:21;;;;;;;6.20;4.53;;;8.90;99.90;;;;;;5048428;28;20456;-67
2023/10/23 06:35:57;;;;;;;6.23;5.00;;;8.90;99.90;;;;;;5046028;28;20502;-70
2023/10/23 06:38:22;;;;;;;5.70;4.40;;;9.00;99.90;;;;;;5045601;28;20224;-69
2023/10/23 06:40:48;;;;;;;7.10;4.30;;;9.00;99.90;;;;;;5065545;28;20416;-69
2023/10/23 06:43:14;;;;;;;6.93;4.27;;;9.00;99.90;;;;;;5045376;28;20212;-70
2023/10/23 06:45:39;;;;;;;7.20;5.10;;;9.00;99.90;;;;;;5059806;28;20212;-71
2023/10/23 06:48:05;;;;;;;7.37;4.97;;;9.00;99.90;;;;;;5023126;28;20194;-70
2023/10/23 06:50:30;;;;;;;5.50;4.50;;;9.00;99.90;;;;;;5006413;28;20214;-72
2023/10/23 06:52:56;;;;;;;6.83;4.57;;;9.10;99.90;;;;;;5022897;28;20191;-70
2023/10/23 06:55:24;;;;;;;7.80;5.50;;;9.10;99.90;;;;;;5006699;28;20235;-69
2023/10/23 06:57:50;;;;;;;7.30;5.10;;;9.10;99.90;;;;;;5027299;28;20226;-70
2023/10/23 07:00:16;;;;;;;6.40;4.73;;;9.10;99.90;;;;;;5006484;28;20698;-72
2023/10/23 07:02:41;;;;;;;10.07;6.00;;;9.10;99.90;;;;;;5026752;28;20913;-69
2023/10/23 07:05:07;;;;;;;8.20;6.00;;;9.20;99.90;;;;;;5025634;28;20560;-69
2023/10/23 07:07:33;;;;;;;9.67;6.77;;;9.20;99.90;;;;;;5025268;28;20262;-69
2023/10/23 07:09:59;;;;;;;8.13;6.37;;;9.30;99.90;;;;;;5025175;28;20194;-68
2023/10/23 07:12:25;;;;;;;14.73;8.93;;;9.30;99.90;;;;;;5003490;28;20263;-71
2023/10/23 07:14:51;;;;;;;14.47;7.80;;;9.40;99.90;;;;;;5016266;28;20389;-71
2023/10/23 07:17:17;;;;;;;10.73;6.83;;;9.40;99.90;;;;;;5028750;28;20927;-68
2023/10/23 07:19:43;;;;;;;10.20;7.60;;;9.50;99.90;;;;;;5035201;28;20246;-69
2023/10/23 07:22:09;;;;;;;10.63;7.97;;;9.50;99.90;;;;;;5047207;28;20432;-70
2023/10/23 07:24:34;;;;;;;9.90;6.30;;;9.50;99.90;;;;;;5048411;28;20261;-70
2023/10/23 07:27:00;;;;;;;16.40;8.63;;;9.50;99.90;;;;;;5033039;28;20205;-69
2023/10/23 07:29:26;;;;;;;12.20;8.10;;;9.50;99.90;;;;;;5020612;28;20457;-69
2023/10/23 07:31:51;;;;;;;12.23;8.40;;;9.60;99.90;;;;;;5050063;28;20202;-72
2023/10/23 07:34:17;;;;;;;10.03;7.30;;;9.60;99.90;;;;;;5050341;28;20213;-69
2023/10/23 07:36:43;;;;;;;10.80;8.50;;;9.60;99.90;;;;;;5033582;28;20652;-72
2023/10/23 07:39:09;;;;;;;8.87;7.30;;;9.70;99.90;;;;;;5049065;28;20179;-72
2023/10/23 07:41:34;;;;;;;11.07;8.43;;;9.70;99.90;;;;;;5032026;28;20206;-73
2023/10/23 07:44:00;;;;;;;9.60;7.40;;;9.80;99.90;;;;;;5037578;28;20680;-72
2023/10/23 07:46:26;;;;;;;10.97;8.70;;;9.80;99.90;;;;;;5045026;28;20211;-70
2023/10/23 07:48:51;;;;;;;12.00;9.20;;;9.90;99.90;;;;;;5017485;28;20185;-74
2023/10/23 07:51:17;;;;;;;11.77;8.30;;;10.00;99.90;;;;;;5034313;28;20186;-72
2023/10/23 07:53:43;;;;;;;8.80;6.60;;;10.10;99.90;;;;;;5013945;28;20214;-72
2023/10/23 07:56:09;;;;;;;9.53;7.30;;;10.20;99.90;;;;;;5047677;28;20472;-73
2023/10/23 07:58:36;;;;;;;10.57;7.80;;;10.30;99.90;;;;;;5019177;28;20218;-69
2023/10/23 08:01:06;;;;;;;10.00;7.17;;;10.40;99.90;;;;;;5047453;28;20414;-70
2023/10/23 08:03:33;;;;;;;14.67;9.03;;;10.50;99.90;;;;;;5031096;28;20437;-71
2023/10/23 08:06:03;;;;;;;10.20;8.10;;;10.60;99.90;;;;;;5050115;28;20405;-69
2023/10/23 08:08:34;;;;;;;11.80;7.80;;;10.70;99.90;;;;;;5015808;28;20468;-73
2023/10/23 08:11:01;;;;;;;10.50;8.60;;;10.70;99.90;;;;;;5039086;28;20522;-71
2023/10/23 08:13:27;;;;;;;10.20;7.23;;;10.80;99.90;;;;;;5032897;28;20479;-69
2023/10/23 08:15:53;;;;;;;10.60;9.50;;;10.80;99.90;;;;;;5037862;28;20471;-71
2023/10/23 08:18:18;;;;;;;8.10;6.60;;;10.80;99.90;;;;;;5050659;28;20189;-70
2023/10/23 08:20:44;;;;;;;10.90;7.80;;;10.80;99.90;;;;;;5050965;28;20412;-70
2023/10/23 08:23:10;;;;;;;7.57;6.47;;;10.90;99.90;;;;;;5044610;28;20564;-73
2023/10/23 08:25:35;;;;;;;8.10;6.47;;;10.90;99.90;;;;;;5013168;28;20230;-70
2023/10/23 08:28:02;;;;;;;10.73;8.00;;;10.90;99.90;;;;;;5017940;28;20198;-71
2023/10/23 08:30:28;;;;;;;9.13;7.50;;;10.80;99.90;;;;;;5037493;28;20214;-72
2023/10/23 08:32:54;;;;;;;9.37;7.40;;;10.70;99.90;;;;;;5030105;28;20425;-70
2023/10/23 08:35:20;;;;;;;11.90;8.53;;;10.70;99.90;;;;;;5037879;28;20517;-71
2023/10/23 08:37:45;;;;;;;9.90;8.90;;;10.80;99.90;;;;;;5061900;28;20186;-72
2023/10/23 08:40:12;;;;;;;9.57;8.57;;;10.80;99.90;;;;;;5030650;28;20213;-69
2023/10/23 08:42:38;;;;;;;14.47;8.17;;;10.80;99.90;;;;;;5032000;28;20207;-71
2023/10/23 08:45:04;;;;;;;8.67;7.40;;;10.80;99.90;;;;;;5038048;28;20490;-70
2023/10/23 08:47:30;;;;;;;9.47;7.80;;;10.90;99.90;;;;;;5041228;28;20732;-70
2023/10/23 08:49:59;;;;;;;9.70;7.20;;;11.00;99.90;;;;;;5014645;28;20422;-73
2023/10/23 08:52:32;;;;;;;8.43;6.50;;;11.10;99.90;;;;;;5022176;28;20277;-72
2023/10/23 08:55:01;;;;;;;8.63;6.50;;;11.10;99.90;;;;;;5015557;28;20444;-73
2023/10/23 08:57:28;;;;;;;6.70;6.10;;;11.10;99.90;;;;;;5031314;28;20425;-73
2023/10/23 08:59:55;;;;;;;6.43;5.80;;;11.20;99.90;;;;;;5037405;28;20421;-71
2023/10/23 09:02:21;;;;;;;6.23;5.23;;;11.30;99.90;;;;;;5049835;28;20409;-70
2023/10/23 09:04:47;;;;;;;9.50;6.23;;;11.40;99.90;;;;;;5031919;28;20476;-72
2023/10/23 09:07:13;;;;;;;7.80;6.53;;;11.40;99.90;;;;;;5024619;28;20424;-68
2023/10/23 09:09:39;;;;;;;10.40;6.90;;;11.50;99.90;;;;;;5030395;28;20433;-68
2023/10/23 09:12:06;;;;;;;6.83;6.17;;;11.60;99.90;;;;;;5029842;28;20170;-67
2023/10/23 09:14:31;;;;;;;7.17;6.27;;;11.60;99.90;;;;;;5016093;28;20270;-70
2023/10/23 09:17:03;;;;;;;7.80;6.47;;;11.60;99.90;;;;;;5013448;28;20473;-68
2023/10/23 09:19:37;;;;;;;7.10;6.30;;;11.60;99.90;;;;;;5043426;28;20678;-70
2023/10/23 09:22:04;;;;;;;10.33;7.20;;;11.60;99.90;;;;;;5014978;28;20436;-71
2023/10/23 09:24:33;;;;;;;6.10;5.50;;;11.60;99.90;;;;;;5029744;28;20471;-71
2023/10/23 09:26:58;;;;;;;6.00;5.07;;;11.70;99.90;;;;;;5030578;28;20421;-71
2023/10/23 09:29:26;;;;;;;7.70;5.90;;;11.80;99.90;;;;;;5034017;28;20452;-70
2023/10/23 09:31:59;;;;;;;6.23;5.57;;;11.90;99.90;;;;;;5025322;28;20193;-73
2023/10/23 09:34:25;;;;;;;5.63;4.97;;;12.00;99.90;;;;;;5026736;28;20453;-70
2023/10/23 09:36:51;;;;;;;5.70;5.20;;;12.10;99.90;;;;;;5017537;28;20453;-71
2023/10/23 09:39:22;;;;;;;8.17;5.60;;;12.20;99.90;;;;;;5033811;28;20191;-71
2023/10/23 09:41:48;;;;;;;9.20;6.23;;;12.30;99.90;;;;;;5034567;28;20421;-71
2023/10/23 09:44:15;;;;;;;6.93;6.20;;;12.30;99.90;;;;;;5047069;28;20441;-73
2023/10/23 09:46:45;;;;;;;12.50;5.13;;;12.30;99.90;;;;;;5037696;28;20417;-71
2023/10/23 09:49:10;;;;;;;6.27;5.67;;;12.30;99.90;;;;;;5028515;28;20475;-73
2023/10/23 09:51:39;;;;;;;8.30;5.27;;;12.30;99.90;;;;;;5025804;28;20461;-72
2023/10/23 09:54:20;;;;;;;6.47;5.40;;;12.30;99.90;;;;;;5027705;28;20215;-74
2023/10/23 09:56:51;;;;;;;6.40;5.70;;;12.40;99.90;;;;;;5000113;28;20465;-73
2023/10/23 09:59:19;;;;;;;7.83;5.57;;;12.40;99.90;;;;;;5060362;28;20422;-71
2023/10/23 10:01:57;;;;;;;9.40;6.23;;;12.50;99.90;;;;;;5040880;28;20642;-72
2023/10/23 10:04:31;;;;;;;8.13;6.00;;;12.60;99.90;;;;;;5018195;28;20463;-73
2023/10/23 10:07:07;;;;;;;9.50;5.60;;;12.70;99.90;;;;;;5032067;28;20509;-71
2023/10/23 10:09:33;;;;;;;7.07;5.50;;;12.80;99.90;;;;;;5030421;28;20704;-71
2023/10/23 10:12:00;;;;;;;8.23;4.83;;;12.80;99.90;;;;;;5013563;28;20461;-72
2023/10/23 10:14:30;;;;;;;6.10;5.00;;;12.80;99.90;;;;;;4994554;28;20465;-70
2023/10/23 10:16:57;;;;;;;6.20;5.60;;;12.90;99.90;;;;;;5042310;28;20527;-72
2023/10/23 10:19:27;;;;;;;6.33;4.77;;;12.90;99.90;;;;;;5035130;28;20436;-73
2023/10/23 10:22:25;;;;;;;6.10;5.50;;;12.90;99.90;;;;;;5034469;28;20700;-73
2023/10/23 10:24:54;;;;;;;5.00;4.30;;;13.00;99.90;;;;;;5037451;28;20507;-73
2023/10/23 10:27:20;;;;;;;5.97;5.07;;;13.10;99.90;;;;;;5038958;28;20442;-73
2023/10/23 10:29:46;;;;;;;7.37;4.40;;;13.20;99.90;;;;;;5021100;28;20426;-71
2023/10/23 10:32:14;;;;;;;8.63;4.70;;;13.40;99.90;;;;;;5019791;28;20422;-72
2023/10/23 10:34:52;;;;;;;6.57;4.30;;;13.50;99.90;;;;;;5042903;28;20990;-72
2023/10/23 10:37:20;;;;;;;6.50;4.20;;;13.70;99.90;;;;;;5031477;28;20424;-70
2023/10/23 10:40:01;;;;;;;13.90;5.40;;;13.70;99.90;;;;;;5042705;28;20490;-72
2023/10/23 10:42:34;;;;;;;5.37;4.27;;;13.90;99.90;;;;;;5043927;28;20430;-73
2023/10/23 10:45:09;;;;;;;4.23;2.57;;;14.00;99.90;;;;;;5019843;28;20452;-71
2023/10/23 10:48:03;;;;;;;6.30;3.20;;;13.90;99.90;;;;;;5048609;28;20467;-72
2023/10/23 10:50:32;;;;;;;7.30;3.30;;;14.00;99.90;;;;;;4978741;28;20438;-70
2023/10/23 10:53:04;;;;;;;4.40;3.20;;;13.90;99.90;;;;;;5033334;28;20411;-72
2023/10/23 10:55:31;;;;;;;4.87;3.03;;;13.90;99.90;;;;;;5039167;28;20464;-72
2023/10/23 10:57:58;;;;;;;5.23;2.60;;;14.00;99.90;;;;;;5040068;28;20433;-69
2023/10/23 11:00:24;;;;;;;4.70;2.73;;;14.00;99.90;;;;;;5044971;28;20411;-71
2023/10/23 11:02:49;;;;;;;3.80;2.63;;;14.10;99.90;;;;;;5034493;28;20915;-70
2023/10/23 11:05:26;;;;;;;2.50;2.30;;;14.10;99.90;;;;;;5070587;28;20223;-74
2023/10/23 11:07:53;;;;;;;5.77;2.50;;;14.10;99.90;;;;;;5033868;28;20213;-74
2023/10/23 11:10:22;;;;;;;5.63;3.30;;;14.20;99.90;;;;;;5014561;28;20438;-72
2023/10/23 11:12:49;;;;;;;4.20;2.90;;;14.20;99.90;;;;;;4998666;28;20427;-72
2023/10/23 11:15:26;;;;;;;4.93;2.43;;;14.30;99.90;;;;;;5014452;28;20219;-72
2023/10/23 11:17:52;;;;;;;4.37;2.40;;;14.30;99.90;;;;;;4998282;28;20451;-71
2023/10/23 11:20:18;;;;;;;8.00;3.20;;;14.40;99.90;;;;;;4980373;28;20454;-71
2023/10/23 11:22:49;;;;;;;6.13;3.10;;;14.40;99.90;;;;;;4995878;28;20433;-71
2023/10/23 11:25:17;;;;;;;8.30;3.23;;;14.60;99.90;;;;;;4998935;28;20219;-73
2023/10/23 11:27:46;;;;;;;4.00;3.20;;;14.50;99.90;;;;;;5015583;28;20438;-73
2023/10/23 11:30:11;;;;;;;3.60;2.97;;;14.50;99.90;;;;;;4997597;28;20455;-69
2023/10/23 11:32:39;;;;;;;4.77;2.80;;;14.50;99.90;;;;;;4981226;28;20402;-72
2023/10/23 11:35:08;;;;;;;4.50;2.60;;;14.60;99.90;;;;;;5000096;28;20222;-72
2023/10/23 11:37:41;;;;;;;3.77;2.90;;;14.60;99.90;;;;;;4997479;28;20503;-73
2023/10/23 11:40:08;;;;;;;4.33;2.90;;;14.70;99.90;;;;;;4988569;28;20437;-72
2023/10/23 11:42:45;;;;;;;4.47;2.90;;;14.70;99.90;;;;;;5001108;28;20434;-73
2023/10/23 11:45:13;;;;;;;6.27;3.73;;;14.80;99.90;;;;;;5119978;23;20465;-74
2023/10/23 11:47:43;;;;;;;4.20;3.03;;;15.00;99.90;;;;;;5042238;28;20410;-73
2023/10/23 11:50:15;;;;;;;4.77;3.07;;;15.00;99.90;;;;;;5023766;28;20439;-72
2023/10/23 11:52:47;;;;;;;4.93;2.87;;;15.00;99.90;;;;;;5032510;28;20434;-72
2023/10/23 11:55:18;;;;;;;5.77;2.63;;;15.20;99.90;;;;;;5021226;28;20466;-72
2023/10/23 11:57:50;;;;;;;3.47;2.47;;;15.10;99.90;;;;;;5011588;28;20431;-70
2023/10/23 12:00:20;;;;;;;3.40;2.50;;;15.00;99.90;;;;;;5030593;28;20410;-74
2023/10/23 12:02:47;;;;;;;5.13;3.20;;;15.00;99.90;;;;;;5026985;28;20492;-73
2023/10/23 12:05:15;;;;;;;8.37;2.60;;;15.10;99.90;;;;;;5023070;28;20450;-74
2023/10/23 12:07:42;;;;;;;6.10;2.93;;;15.10;99.90;;;;;;5017020;28;20438;-73
2023/10/23 12:10:09;;;;;;;6.23;2.33;;;15.00;99.90;;;;;;5034040;28;20883;-71
2023/10/23 12:12:37;;;;;;;3.20;2.30;;;15.00;99.90;;;;;;5030506;28;20423;-74
2023/10/23 12:15:04;;;;;;;3.73;2.20;;;15.00;99.90;;;;;;5031094;28;20450;-73
2023/10/23 12:17:30;;;;;;;5.37;3.13;;;15.00;99.90;;;;;;5001129;28;20430;-73
2023/10/23 12:19:55;;;;;;;5.13;2.30;;;15.10;99.90;;;;;;4997818;28;20414;-71
2023/10/23 12:22:21;;;;;;;7.47;2.63;;;15.00;99.90;;;;;;5015197;28;20167;-73
2023/10/23 12:24:47;;;;;;;3.37;2.50;;;15.00;99.90;;;;;;5019480;28;20433;-71
2023/10/23 12:27:13;;;;;;;2.73;2.00;;;15.00;99.90;;;;;;5033021;28;20181;-74
2023/10/23 12:29:38;;;;;;;4.00;1.77;;;14.90;99.90;;;;;;5034774;28;20372;-74
2023/10/23 12:32:04;;;;;;;2.20;1.70;;;15.00;99.90;;;;;;5021501;28;20194;-71
2023/10/23 12:34:30;;;;;;;3.83;1.90;;;15.20;99.90;;;;;;5021408;28;20240;-72
2023/10/23 12:36:57;;;;;;;5.33;2.10;;;15.20;99.90;;;;;;5033976;28;20733;-73
2023/10/23 12:39:23;;;;;;;4.83;2.10;;;15.30;99.90;;;;;;5022667;28;20420;-72
2023/10/23 12:41:48;;;;;;;3.67;1.63;;;15.50;99.90;;;;;;5051936;28;20417;-74
2023/10/23 12:44:14;;;;;;;6.20;1.63;;;15.70;99.90;;;;;;5037501;28;20256;-73
2023/10/23 12:46:39;;;;;;;3.70;1.60;;;15.70;99.90;;;;;;5055948;28;20638;-74
2023/10/23 12:49:05;;;;;;;3.90;2.10;;;15.70;99.90;;;;;;5054299;28;20204;-72